createdAt,value
2018-10-17T00:02:07.023Z,18.03
2018-10-17T00:07:10.732Z,18.33
2018-10-17T00:12:14.342Z,20.20
2018-10-17T00:17:17.962Z,17.80
2018-10-17T00:22:21.583Z,17.90
2018-10-17T00:27:25.319Z,15.70
2018-10-17T00:32:28.965Z,16.97
2018-10-17T00:37:32.596Z,17.10
2018-10-17T00:42:36.704Z,15.53
2018-10-17T00:47:40.418Z,17.27
2018-10-17T00:52:44.074Z,18.10
2018-10-17T00:57:47.707Z,17.70
2018-10-17T01:02:51.361Z,16.50
2018-10-17T01:07:54.970Z,15.90
2018-10-17T01:12:58.601Z,16.67
2018-10-17T01:18:02.218Z,18.33
2018-10-17T01:23:06.000Z,16.40
2018-10-17T01:28:09.548Z,17.40
2018-10-17T01:33:13.165Z,16.47
2018-10-17T01:38:16.887Z,16.50
2018-10-17T01:43:20.571Z,17.17
2018-10-17T01:48:24.236Z,17.63
2018-10-17T01:53:27.862Z,17.57
2018-10-17T01:58:31.515Z,16.80
2018-10-17T02:03:35.153Z,18.83
2018-10-17T02:08:39.056Z,17.23
2018-10-17T02:13:42.703Z,17.23
2018-10-17T02:18:46.319Z,17.97
2018-10-17T02:23:49.929Z,17.67
2018-10-17T02:28:53.582Z,17.60
2018-10-17T02:33:57.198Z,17.50
2018-10-17T02:39:00.823Z,18.93
2018-10-17T02:44:05.762Z,17.53
2018-10-17T02:49:09.467Z,18.00
2018-10-17T02:54:13.037Z,17.43
2018-10-17T02:59:16.720Z,19.30
2018-10-17T03:04:20.443Z,18.10
2018-10-17T03:09:24.163Z,17.30
2018-10-17T03:14:28.374Z,18.17
2018-10-17T03:19:32.000Z,16.33
2018-10-17T03:24:35.751Z,18.27
2018-10-17T03:29:39.385Z,19.13
2018-10-17T03:34:43.039Z,17.97
2018-10-17T03:39:46.774Z,18.90
2018-10-17T03:44:50.496Z,18.40
2018-10-17T03:49:54.127Z,19.90
2018-10-17T03:54:57.785Z,18.30
2018-10-17T04:00:01.473Z,18.53
2018-10-17T04:05:06.008Z,19.57
2018-10-17T04:10:09.573Z,17.43
2018-10-17T04:15:13.336Z,19.47
2018-10-17T04:20:16.967Z,19.50
2018-10-17T04:25:20.681Z,17.93
2018-10-17T04:30:24.795Z,18.40
2018-10-17T04:35:28.427Z,19.60
2018-10-17T04:40:32.067Z,20.40
2018-10-17T04:45:35.726Z,20.07
2018-10-17T04:50:39.350Z,19.47
2018-10-17T04:55:43.143Z,19.43
2018-10-17T05:00:46.762Z,20.37
2018-10-17T05:05:50.510Z,20.13
2018-10-17T05:10:54.250Z,19.87
2018-10-17T05:15:57.975Z,19.97
2018-10-17T05:21:02.780Z,20.33
2018-10-17T05:26:07.352Z,20.87
2018-10-17T05:31:11.234Z,20.20
2018-10-17T05:36:17.065Z,22.10
2018-10-17T05:41:22.091Z,20.70
2018-10-17T05:46:25.764Z,20.20
2018-10-17T05:51:29.396Z,22.93
2018-10-17T05:56:33.879Z,23.27
2018-10-17T06:01:37.974Z,21.03
2018-10-17T06:06:41.604Z,21.87
2018-10-17T06:11:45.228Z,21.80
2018-10-17T06:16:48.875Z,21.67
2018-10-17T06:21:52.487Z,23.27
2018-10-17T06:26:56.175Z,23.37
2018-10-17T06:32:00.458Z,23.30
2018-10-17T06:37:06.178Z,24.37
2018-10-17T06:42:10.053Z,24.77
2018-10-17T06:47:13.858Z,24.30
2018-10-17T06:52:18.556Z,29.17
2018-10-17T06:57:23.257Z,28.10
2018-10-17T07:02:27.491Z,28.10
2018-10-17T07:07:31.138Z,27.23
2018-10-17T07:12:34.790Z,26.80
2018-10-17T07:17:40.586Z,27.07
2018-10-17T07:22:46.563Z,27.70
2018-10-17T07:27:52.740Z,28.50
2018-10-17T07:32:58.548Z,29.60
2018-10-17T07:38:04.249Z,31.00
2018-10-17T07:43:10.062Z,30.77
2018-10-17T07:48:15.685Z,31.07
2018-10-17T07:53:22.727Z,33.07
2018-10-17T07:58:26.991Z,33.30
2018-10-17T08:03:30.707Z,36.10
2018-10-17T08:08:34.342Z,32.67
2018-10-17T08:13:38.038Z,33.80
2018-10-17T08:18:41.666Z,32.20
2018-10-17T08:23:45.283Z,32.60
2018-10-17T08:28:49.089Z,34.57
2018-10-17T08:33:53.148Z,31.20
2018-10-17T08:38:56.967Z,33.63
2018-10-17T08:44:00.624Z,31.30
2018-10-17T08:49:04.248Z,31.20
2018-10-17T08:54:07.908Z,34.40
2018-10-17T08:59:11.640Z,32.50
2018-10-17T09:04:15.343Z,32.20
2018-10-17T09:09:19.057Z,33.30
2018-10-17T09:14:22.687Z,34.13
2018-10-17T09:19:26.406Z,33.03
2018-10-17T09:24:30.024Z,33.10
2018-10-17T09:29:33.669Z,31.27
2018-10-17T09:34:37.372Z,28.53
2018-10-17T09:39:41.040Z,27.00
2018-10-17T09:44:44.735Z,24.90
2018-10-17T09:49:48.377Z,25.40
2018-10-17T09:54:52.010Z,26.00
2018-10-17T09:59:55.760Z,26.23
2018-10-17T10:04:59.343Z,25.53
2018-10-17T10:10:02.992Z,25.43
2018-10-17T10:15:06.636Z,26.80
2018-10-17T10:20:10.282Z,24.53
2018-10-17T10:25:13.955Z,23.50
2018-10-17T10:30:17.570Z,25.30
2018-10-17T10:35:21.143Z,25.70
2018-10-17T10:40:24.827Z,22.97
2018-10-17T10:45:28.468Z,24.03
2018-10-17T10:50:32.065Z,20.80
2018-10-17T10:55:35.714Z,21.20
2018-10-17T11:00:39.359Z,20.77
2018-10-17T11:05:43.262Z,19.60
2018-10-17T11:10:46.667Z,21.80
2018-10-17T11:15:50.302Z,22.30
2018-10-17T11:20:54.015Z,19.97
2018-10-17T11:25:57.630Z,21.87
2018-10-17T11:31:01.280Z,22.27
2018-10-17T11:36:05.026Z,20.37
2018-10-17T11:41:08.712Z,20.07
2018-10-17T11:46:12.442Z,18.03
2018-10-17T11:51:16.303Z,18.73
2018-10-17T11:56:20.072Z,17.60
2018-10-17T12:01:23.784Z,17.93
2018-10-17T12:06:32.356Z,17.37
2018-10-17T12:11:35.894Z,15.67
2018-10-17T12:16:39.522Z,16.03
2018-10-17T12:21:43.131Z,16.60
2018-10-17T12:26:46.888Z,17.57
2018-10-17T12:31:50.567Z,17.90
2018-10-17T12:36:54.314Z,16.77
2018-10-17T12:41:57.984Z,17.40
2018-10-17T12:47:01.622Z,15.73
2018-10-17T12:52:05.482Z,16.83
2018-10-17T12:57:09.211Z,15.73
2018-10-17T13:02:12.839Z,17.20
2018-10-17T13:07:16.526Z,15.07
2018-10-17T13:12:20.167Z,18.60
2018-10-17T13:17:25.007Z,16.80
2018-10-17T13:22:28.650Z,16.87
2018-10-17T13:27:32.306Z,18.50
2018-10-17T13:32:36.767Z,18.80
2018-10-17T13:37:40.412Z,16.60
2018-10-17T13:42:44.202Z,17.47
2018-10-17T13:47:47.869Z,16.57
2018-10-17T13:52:51.570Z,17.57
2018-10-17T13:57:55.273Z,16.60
2018-10-17T14:02:58.838Z,17.43
2018-10-17T14:08:02.524Z,15.80
2018-10-17T14:13:06.171Z,18.40
2018-10-17T14:18:09.826Z,19.00
2018-10-17T14:23:13.524Z,23.32
2018-10-17T14:28:17.127Z,22.90
2018-10-17T14:33:21.491Z,19.43
2018-10-17T14:38:25.571Z,19.13
2018-10-17T14:43:29.269Z,16.60
2018-10-17T14:48:32.960Z,16.70
2018-10-17T14:53:37.215Z,16.83
2018-10-17T14:58:40.874Z,18.43
2018-10-17T15:03:45.554Z,17.27
2018-10-17T15:08:49.271Z,19.33
2018-10-17T15:13:53.665Z,16.40
2018-10-17T15:18:57.794Z,16.43
2018-10-17T15:24:01.735Z,16.83
2018-10-17T15:29:07.050Z,15.63
2018-10-17T15:34:11.930Z,15.53
2018-10-17T15:39:15.590Z,16.00
2018-10-17T15:44:19.182Z,16.03
2018-10-17T15:49:22.793Z,15.97
2018-10-17T15:54:26.506Z,16.43
2018-10-17T15:59:31.007Z,15.80
2018-10-17T16:04:34.678Z,16.10
2018-10-17T16:09:38.294Z,16.10
2018-10-17T16:14:42.071Z,15.43
2018-10-17T16:19:45.713Z,16.27
2018-10-17T16:24:49.743Z,17.63
2018-10-17T16:29:53.997Z,15.53
2018-10-17T16:34:57.675Z,17.10
2018-10-17T16:40:01.359Z,17.77
2018-10-17T16:45:06.013Z,16.33
2018-10-17T16:50:09.760Z,19.43
2018-10-17T16:55:13.392Z,17.87
2018-10-17T17:00:17.208Z,18.67
2018-10-17T17:05:21.769Z,19.73
2018-10-17T17:10:25.484Z,19.90
2018-10-17T17:15:29.242Z,19.17
2018-10-17T17:20:32.855Z,20.87
2018-10-17T17:25:36.559Z,20.90
2018-10-17T17:30:40.384Z,20.40
2018-10-17T17:35:44.887Z,20.50
2018-10-17T17:40:48.528Z,22.60
2018-10-17T17:45:52.302Z,20.47
2018-10-17T17:50:56.023Z,22.67
2018-10-17T17:55:59.706Z,22.53
2018-10-17T18:01:03.367Z,21.20
2018-10-17T18:06:07.164Z,20.60
2018-10-17T18:11:19.134Z,22.10
2018-10-17T18:16:22.773Z,22.20
2018-10-17T18:21:26.422Z,21.73
2018-10-17T18:26:30.412Z,21.30
2018-10-17T18:31:34.419Z,20.57
2018-10-17T18:36:38.165Z,21.77
2018-10-17T18:41:42.972Z,22.47
2018-10-17T18:46:46.708Z,21.80
2018-10-17T18:51:50.324Z,25.10
2018-10-17T18:56:53.999Z,24.20
2018-10-17T19:01:57.614Z,22.43
2018-10-17T19:07:01.514Z,23.17
2018-10-17T19:12:06.528Z,22.70
2018-10-17T19:17:10.476Z,24.00
2018-10-17T19:22:14.123Z,24.17
2018-10-17T19:27:17.768Z,23.60
2018-10-17T19:32:21.436Z,22.70
2018-10-17T19:37:25.077Z,25.30
2018-10-17T19:42:28.959Z,24.17
2018-10-17T19:47:32.601Z,25.27
2018-10-17T19:52:36.295Z,26.23
2018-10-17T19:57:40.060Z,27.20
2018-10-17T20:02:43.987Z,26.43
2018-10-17T20:07:47.766Z,27.43
2018-10-17T20:12:51.348Z,29.07
2018-10-17T20:17:56.651Z,26.53
2018-10-17T20:23:00.533Z,29.20
2018-10-17T20:28:04.284Z,26.90
2018-10-17T20:33:08.420Z,33.10
2018-10-17T20:38:12.252Z,31.80
2018-10-17T20:43:15.976Z,29.30
2018-10-17T20:48:19.751Z,30.97
2018-10-17T20:53:23.633Z,29.23
2018-10-17T20:58:27.376Z,30.67
2018-10-17T21:03:30.935Z,31.83
2018-10-17T21:08:34.561Z,31.93
2018-10-17T21:13:38.246Z,31.13
2018-10-17T21:18:41.944Z,32.00
2018-10-17T21:23:45.519Z,30.57
2018-10-17T21:28:49.141Z,30.20
2018-10-17T21:33:52.839Z,30.97
2018-10-17T21:38:56.483Z,30.00
2018-10-17T21:44:00.206Z,28.97
2018-10-17T21:49:03.813Z,28.87
2018-10-17T21:54:07.618Z,30.50
2018-10-17T21:59:11.236Z,29.53
2018-10-17T22:04:14.853Z,28.17
2018-10-17T22:09:18.474Z,29.57
2018-10-17T22:14:22.083Z,28.87
2018-10-17T22:19:26.021Z,30.20
2018-10-17T22:24:29.545Z,28.80
2018-10-17T22:29:33.196Z,29.80
2018-10-17T22:34:36.891Z,29.07
2018-10-17T22:39:40.539Z,28.60
2018-10-17T22:44:44.198Z,28.50
2018-10-17T22:49:47.864Z,27.67
2018-10-17T22:54:51.502Z,30.70
2018-10-17T22:59:55.191Z,30.30
2018-10-17T23:04:58.862Z,29.57
2018-10-17T23:10:02.595Z,31.00
2018-10-17T23:15:10.029Z,29.27
2018-10-17T23:20:13.716Z,28.93
2018-10-17T23:25:17.259Z,30.27
2018-10-17T23:30:20.963Z,30.87
2018-10-17T23:35:24.727Z,29.47
2018-10-17T23:40:28.346Z,28.47
2018-10-17T23:45:32.132Z,27.67
2018-10-17T23:50:36.169Z,28.53
2018-10-17T23:55:39.863Z,27.77
